createdAt,value
2017-12-15T00:01:57.887Z,4.00
2017-12-15T00:04:26.038Z,3.90
2017-12-15T00:06:54.921Z,3.80
2017-12-15T00:09:23.833Z,3.80
2017-12-15T00:11:51.963Z,3.80
2017-12-15T00:14:20.127Z,3.90
2017-12-15T00:16:49.150Z,3.90
2017-12-15T00:19:18.041Z,3.90
2017-12-15T00:21:46.963Z,3.80
2017-12-15T00:24:15.084Z,3.80
2017-12-15T00:26:43.226Z,3.70
2017-12-15T00:29:11.371Z,3.60
2017-12-15T00:31:40.279Z,3.50
2017-12-15T00:34:08.401Z,3.50
2017-12-15T00:36:36.549Z,3.50
2017-12-15T00:39:04.722Z,3.50
2017-12-15T00:41:32.846Z,3.50
2017-12-15T00:44:02.034Z,3.60
2017-12-15T00:46:30.194Z,3.60
2017-12-15T00:48:58.314Z,3.60
2017-12-15T00:51:26.473Z,3.60
2017-12-15T00:53:55.358Z,3.80
2017-12-15T00:56:24.278Z,3.80
2017-12-15T00:58:52.398Z,3.80
2017-12-15T01:01:20.547Z,3.80
2017-12-15T01:03:48.675Z,3.80
2017-12-15T01:06:16.809Z,3.80
2017-12-15T01:08:44.971Z,3.80
2017-12-15T01:11:13.094Z,3.80
2017-12-15T01:13:41.235Z,3.80
2017-12-15T01:16:09.410Z,3.80
2017-12-15T01:18:37.571Z,3.80
2017-12-15T01:21:05.711Z,3.90
2017-12-15T01:23:33.854Z,4.00
2017-12-15T01:26:02.735Z,3.90
2017-12-15T01:28:31.646Z,3.80
2017-12-15T01:30:59.770Z,3.80
2017-12-15T01:33:27.936Z,3.80
2017-12-15T01:35:56.056Z,3.80
2017-12-15T01:38:24.966Z,3.80
2017-12-15T01:40:53.078Z,3.80
2017-12-15T01:43:21.243Z,3.90
2017-12-15T01:45:49.357Z,3.90
2017-12-15T01:48:18.271Z,4.10
2017-12-15T01:50:46.380Z,4.10
2017-12-15T01:53:14.516Z,4.10
2017-12-15T01:55:42.639Z,4.10
2017-12-15T01:58:10.763Z,4.20
2017-12-15T02:00:38.915Z,4.20
2017-12-15T02:03:07.061Z,4.30
2017-12-15T02:05:35.203Z,4.30
2017-12-15T02:08:03.689Z,4.30
2017-12-15T02:10:31.846Z,4.30
2017-12-15T02:12:59.962Z,4.30
2017-12-15T02:15:28.106Z,4.30
2017-12-15T02:17:56.232Z,4.20
2017-12-15T02:20:25.150Z,4.30
2017-12-15T02:22:53.271Z,4.30
2017-12-15T02:25:21.419Z,4.30
2017-12-15T02:27:49.537Z,4.30
2017-12-15T02:30:17.692Z,4.30
2017-12-15T02:32:45.829Z,4.30
2017-12-15T02:35:13.965Z,4.30
2017-12-15T02:37:42.863Z,4.30
2017-12-15T02:40:11.028Z,4.30
2017-12-15T02:42:39.930Z,4.30
2017-12-15T02:45:08.097Z,4.30
2017-12-15T02:47:36.999Z,4.30
2017-12-15T02:50:05.942Z,4.40
2017-12-15T02:52:34.051Z,4.30
2017-12-15T02:55:02.929Z,4.40
2017-12-15T02:57:31.072Z,4.40
2017-12-15T02:59:59.194Z,4.40
2017-12-15T03:02:28.110Z,4.30
2017-12-15T03:04:56.229Z,4.30
2017-12-15T03:07:24.371Z,4.40
2017-12-15T03:09:52.491Z,4.40
2017-12-15T03:12:20.634Z,4.40
2017-12-15T03:14:48.766Z,4.40
2017-12-15T03:17:16.913Z,4.30
2017-12-15T03:19:45.040Z,4.30
2017-12-15T03:22:13.197Z,4.40
2017-12-15T03:24:41.338Z,4.60
2017-12-15T03:27:10.246Z,4.50
2017-12-15T03:29:38.365Z,4.50
2017-12-15T03:32:06.511Z,4.60
2017-12-15T03:34:34.629Z,4.60
2017-12-15T03:37:03.201Z,4.60
2017-12-15T03:39:31.343Z,4.80
2017-12-15T03:41:59.505Z,4.90
2017-12-15T03:44:27.627Z,4.90
2017-12-15T03:46:55.782Z,4.90
2017-12-15T03:49:23.893Z,4.80
2017-12-15T03:51:52.818Z,4.80
2017-12-15T03:54:20.929Z,4.80
2017-12-15T03:56:49.074Z,4.90
2017-12-15T03:59:17.188Z,4.70
2017-12-15T04:01:45.334Z,4.60
2017-12-15T04:04:13.466Z,4.80
2017-12-15T04:06:42.366Z,4.80
2017-12-15T04:09:10.490Z,4.80
2017-12-15T04:11:38.643Z,4.80
2017-12-15T04:14:06.763Z,4.90
2017-12-15T04:16:35.686Z,5.00
2017-12-15T04:19:04.293Z,5.00
2017-12-15T04:21:32.449Z,5.00
2017-12-15T04:24:00.596Z,5.00
2017-12-15T04:26:29.479Z,5.10
2017-12-15T04:28:58.391Z,5.00
2017-12-15T04:31:26.526Z,5.00
2017-12-15T04:33:54.677Z,5.00
2017-12-15T04:36:22.794Z,5.00
2017-12-15T04:38:51.694Z,5.10
2017-12-15T04:41:19.815Z,5.10
2017-12-15T04:43:47.957Z,5.10
2017-12-15T04:46:16.090Z,5.10
2017-12-15T04:48:45.010Z,5.00
2017-12-15T04:51:13.123Z,5.00
2017-12-15T04:53:41.258Z,5.00
2017-12-15T04:56:09.382Z,4.90
2017-12-15T04:58:37.527Z,4.90
2017-12-15T05:01:05.653Z,5.00
2017-12-15T05:03:34.580Z,4.90
2017-12-15T05:06:02.714Z,4.90
2017-12-15T05:08:31.639Z,5.10
2017-12-15T05:10:59.765Z,5.10
2017-12-15T05:13:27.883Z,5.00
2017-12-15T05:15:56.026Z,5.00
2017-12-15T05:18:24.916Z,5.00
2017-12-15T05:20:53.822Z,5.10
2017-12-15T05:23:22.706Z,5.10
2017-12-15T05:25:51.636Z,5.00
2017-12-15T05:28:19.764Z,5.00
2017-12-15T05:30:48.691Z,4.90
2017-12-15T05:33:16.813Z,4.80
2017-12-15T05:35:44.972Z,4.70
2017-12-15T05:38:13.099Z,4.80
2017-12-15T05:40:41.246Z,4.70
2017-12-15T05:43:10.147Z,4.80
2017-12-15T05:45:39.058Z,4.70
2017-12-15T05:48:07.202Z,4.70
2017-12-15T05:50:36.122Z,4.70
2017-12-15T05:53:04.353Z,4.70
2017-12-15T05:55:32.519Z,4.70
2017-12-15T05:58:00.642Z,4.70
2017-12-15T06:00:28.790Z,4.70
2017-12-15T06:02:57.682Z,4.70
2017-12-15T06:05:26.597Z,4.60
2017-12-15T06:07:54.722Z,4.60
2017-12-15T06:10:22.878Z,4.50
2017-12-15T06:12:51.025Z,4.40
2017-12-15T06:15:19.179Z,4.50
2017-12-15T06:17:48.087Z,4.70
2017-12-15T06:20:16.209Z,4.70
2017-12-15T06:22:44.362Z,4.60
2017-12-15T06:25:12.553Z,4.70
2017-12-15T06:27:40.710Z,4.70
2017-12-15T06:30:08.839Z,4.70
2017-12-15T06:32:37.027Z,4.70
2017-12-15T06:35:05.192Z,4.70
2017-12-15T06:37:33.333Z,4.80
2017-12-15T06:40:01.580Z,4.70
2017-12-15T06:42:29.902Z,4.70
2017-12-15T06:44:58.788Z,4.70
2017-12-15T06:47:27.701Z,4.80
2017-12-15T06:49:55.825Z,4.80
2017-12-15T06:52:23.978Z,4.80
2017-12-15T06:54:52.101Z,4.70
2017-12-15T06:57:21.015Z,5.00
2017-12-15T06:59:49.134Z,5.00
2017-12-15T07:02:17.282Z,5.00
2017-12-15T07:04:45.408Z,4.80
2017-12-15T07:07:14.319Z,3.00
2017-12-15T07:09:42.469Z,4.80
2017-12-15T07:12:11.398Z,4.70
2017-12-15T07:14:39.514Z,4.60
2017-12-15T07:17:07.670Z,4.60
2017-12-15T07:19:35.808Z,4.60
2017-12-15T07:22:03.963Z,4.50
2017-12-15T07:24:32.102Z,4.50
2017-12-15T07:27:00.275Z,4.60
2017-12-15T07:29:28.418Z,4.60
2017-12-15T07:31:56.536Z,4.80
2017-12-15T07:34:25.463Z,4.60
2017-12-15T07:36:53.582Z,4.60
2017-12-15T07:39:21.729Z,4.50
2017-12-15T07:41:49.869Z,4.40
2017-12-15T07:44:18.785Z,4.30
2017-12-15T07:46:46.905Z,4.30
2017-12-15T07:49:15.843Z,4.30
2017-12-15T07:51:43.968Z,4.30
2017-12-15T07:54:12.122Z,4.30
2017-12-15T07:56:40.243Z,4.30
2017-12-15T07:59:09.196Z,4.30
2017-12-15T08:01:37.347Z,4.30
2017-12-15T08:04:05.503Z,4.40
2017-12-15T08:06:33.627Z,4.40
2017-12-15T08:09:01.784Z,4.40
2017-12-15T08:11:29.918Z,4.50
2017-12-15T08:13:58.062Z,4.60
2017-12-15T08:16:26.198Z,4.80
2017-12-15T08:18:54.319Z,4.70
2017-12-15T08:21:23.222Z,5.00
2017-12-15T08:23:51.362Z,5.00
2017-12-15T08:26:20.290Z,5.00
2017-12-15T08:28:48.418Z,5.00
2017-12-15T08:31:16.564Z,5.00
2017-12-15T08:33:44.695Z,4.90
2017-12-15T08:36:13.602Z,5.10
2017-12-15T08:38:41.739Z,5.10
2017-12-15T08:41:09.898Z,5.20
2017-12-15T08:43:38.031Z,5.20
2017-12-15T08:46:06.210Z,5.30
2017-12-15T08:48:34.353Z,5.30
2017-12-15T08:51:03.262Z,5.50
2017-12-15T08:53:31.394Z,5.50
2017-12-15T08:55:59.549Z,5.50
2017-12-15T08:58:27.666Z,5.70
2017-12-15T09:00:55.832Z,5.70
2017-12-15T09:03:24.731Z,5.80
2017-12-15T09:05:53.619Z,5.90
2017-12-15T09:08:22.530Z,5.80
2017-12-15T09:10:50.650Z,5.80
2017-12-15T09:13:18.802Z,5.80
2017-12-15T09:15:46.927Z,5.90
2017-12-15T09:18:15.850Z,5.80
2017-12-15T09:20:43.987Z,5.80
2017-12-15T09:23:12.894Z,5.90
2017-12-15T09:25:41.018Z,5.80
2017-12-15T09:28:09.184Z,5.70
2017-12-15T09:30:37.314Z,5.70
2017-12-15T09:33:05.470Z,5.80
2017-12-15T09:35:34.361Z,6.00
2017-12-15T09:38:03.383Z,6.00
2017-12-15T09:40:32.451Z,6.00
2017-12-15T09:43:01.454Z,6.10
2017-12-15T09:45:30.351Z,6.20
2017-12-15T09:47:58.499Z,6.20
2017-12-15T09:50:26.620Z,6.10
2017-12-15T09:52:54.778Z,6.10
2017-12-15T09:55:22.918Z,6.20
2017-12-15T09:57:51.859Z,6.20
2017-12-15T10:00:19.978Z,6.10
2017-12-15T10:02:48.111Z,6.20
2017-12-15T10:05:16.254Z,6.20
2017-12-15T10:07:45.134Z,6.20
2017-12-15T10:10:14.058Z,6.20
2017-12-15T10:12:42.180Z,6.20
2017-12-15T10:15:10.334Z,6.20
2017-12-15T10:17:38.465Z,5.90
2017-12-15T10:20:06.614Z,6.00
2017-12-15T10:22:35.527Z,6.20
2017-12-15T10:25:03.802Z,6.20
2017-12-15T10:27:31.958Z,6.30
2017-12-15T10:30:01.243Z,6.40
2017-12-15T10:32:29.384Z,6.40
2017-12-15T10:34:57.553Z,6.70
2017-12-15T10:37:26.510Z,6.70
2017-12-15T10:39:54.665Z,6.70
2017-12-15T10:42:22.779Z,6.80
2017-12-15T10:44:50.943Z,6.60
2017-12-15T10:47:19.083Z,6.60
2017-12-15T10:49:48.021Z,6.70
2017-12-15T10:52:16.199Z,6.70
2017-12-15T10:54:44.338Z,6.70
2017-12-15T10:57:12.495Z,6.40
2017-12-15T10:59:41.386Z,6.20
2017-12-15T11:02:10.309Z,6.20
2017-12-15T11:04:38.435Z,6.20
2017-12-15T11:07:06.590Z,6.50
2017-12-15T11:09:34.737Z,6.50
2017-12-15T11:12:04.442Z,6.60
2017-12-15T11:14:32.561Z,6.80
2017-12-15T11:17:01.508Z,6.80
2017-12-15T11:19:29.654Z,6.70
2017-12-15T11:21:57.800Z,6.90
2017-12-15T11:24:25.921Z,6.80
2017-12-15T11:26:54.078Z,6.70
2017-12-15T11:29:22.982Z,6.60
2017-12-15T11:31:51.926Z,6.70
2017-12-15T11:34:20.042Z,6.70
2017-12-15T11:36:48.954Z,6.60
2017-12-15T11:39:17.073Z,6.60
2017-12-15T11:41:45.240Z,6.60
2017-12-15T11:44:13.369Z,6.50
2017-12-15T11:46:41.491Z,6.50
2017-12-15T11:49:09.644Z,6.30
2017-12-15T11:51:37.769Z,6.20
2017-12-15T11:54:06.686Z,6.20
2017-12-15T11:56:34.849Z,6.20
2017-12-15T11:59:03.867Z,5.90
2017-12-15T12:01:31.998Z,5.90
2017-12-15T12:04:00.945Z,5.80
2017-12-15T12:06:29.090Z,5.80
2017-12-15T12:08:57.233Z,5.80
2017-12-15T12:11:26.120Z,5.80
2017-12-15T12:13:54.278Z,5.80
2017-12-15T12:16:22.395Z,5.80
2017-12-15T12:18:50.539Z,5.80
2017-12-15T12:21:29.518Z,5.80
2017-12-15T12:24:01.559Z,5.80
2017-12-15T12:26:30.447Z,5.60
2017-12-15T12:28:59.354Z,5.80
2017-12-15T12:31:27.474Z,5.80
2017-12-15T12:33:55.614Z,5.80
2017-12-15T12:36:23.734Z,5.60
2017-12-15T12:38:51.883Z,5.60
2017-12-15T12:41:20.002Z,5.40
2017-12-15T12:43:48.912Z,5.20
2017-12-15T12:46:17.033Z,5.20
2017-12-15T12:48:45.199Z,5.50
2017-12-15T12:51:13.314Z,5.40
2017-12-15T12:53:42.231Z,5.30
2017-12-15T12:56:10.352Z,5.30
2017-12-15T12:58:38.492Z,5.20
2017-12-15T13:01:06.627Z,5.00
2017-12-15T13:03:35.531Z,5.00
2017-12-15T13:06:03.649Z,5.10
2017-12-15T13:08:31.798Z,4.90
2017-12-15T13:10:59.918Z,4.90
2017-12-15T13:13:28.079Z,5.10
2017-12-15T13:15:56.202Z,5.10
2017-12-15T13:18:24.343Z,5.10
2017-12-15T13:20:52.469Z,5.00
2017-12-15T13:23:20.610Z,5.00
2017-12-15T13:25:48.746Z,4.90
2017-12-15T13:28:16.898Z,5.00
2017-12-15T13:30:45.018Z,5.10
2017-12-15T13:33:13.910Z,5.20
2017-12-15T13:35:42.828Z,5.00
2017-12-15T13:38:10.950Z,5.00
2017-12-15T13:40:39.098Z,4.90
2017-12-15T13:43:07.220Z,4.90
2017-12-15T13:45:36.134Z,4.70
2017-12-15T13:48:04.250Z,4.70
2017-12-15T13:50:32.399Z,4.70
2017-12-15T13:53:00.523Z,4.70
2017-12-15T13:55:29.431Z,4.50
2017-12-15T13:57:57.559Z,4.50
2017-12-15T14:00:25.712Z,4.40
2017-12-15T14:02:53.832Z,4.40
2017-12-15T14:05:22.747Z,4.50
2017-12-15T14:07:50.866Z,4.50
2017-12-15T14:10:19.007Z,4.40
2017-12-15T14:12:47.126Z,4.30
2017-12-15T14:15:15.389Z,4.30
2017-12-15T14:17:43.513Z,4.30
2017-12-15T14:20:11.672Z,4.30
2017-12-15T14:22:40.560Z,4.10
2017-12-15T14:25:09.468Z,4.00
2017-12-15T14:27:37.595Z,4.00
2017-12-15T14:30:05.791Z,4.00
2017-12-15T14:32:33.929Z,3.90
2017-12-15T14:35:02.258Z,3.80
2017-12-15T14:37:30.567Z,3.70
2017-12-15T14:39:58.690Z,3.60
2017-12-15T14:42:26.866Z,3.70
2017-12-15T14:44:54.986Z,3.70
2017-12-15T14:47:23.131Z,3.60
2017-12-15T14:49:52.015Z,3.40
2017-12-15T14:52:20.933Z,3.40
2017-12-15T14:54:49.069Z,3.40
2017-12-15T14:57:17.262Z,3.40
2017-12-15T14:59:46.486Z,3.20
2017-12-15T15:02:14.739Z,3.20
2017-12-15T15:04:43.617Z,3.30
2017-12-15T15:07:12.567Z,3.30
2017-12-15T15:09:40.690Z,3.30
2017-12-15T15:12:09.606Z,3.20
2017-12-15T15:14:37.742Z,3.20
2017-12-15T15:17:05.946Z,3.10
2017-12-15T15:19:34.079Z,3.10
2017-12-15T15:22:03.475Z,2.80
2017-12-15T15:24:32.406Z,2.80
2017-12-15T15:27:00.556Z,2.80
2017-12-15T15:29:28.883Z,2.70
2017-12-15T15:31:58.414Z,2.70
2017-12-15T15:34:26.931Z,2.70
2017-12-15T15:36:55.109Z,2.80
2017-12-15T15:39:24.003Z,2.80
2017-12-15T15:41:52.982Z,2.60
2017-12-15T15:44:21.881Z,2.40
2017-12-15T15:46:50.799Z,2.30
2017-12-15T15:49:18.957Z,2.30
2017-12-15T15:51:47.909Z,2.20
2017-12-15T15:54:17.351Z,2.30
2017-12-15T15:56:46.236Z,2.20
2017-12-15T15:59:15.166Z,2.10
2017-12-15T16:01:43.298Z,2.00
2017-12-15T16:04:12.239Z,2.20
2017-12-15T16:06:40.363Z,2.20
2017-12-15T16:09:09.295Z,1.80
2017-12-15T16:11:37.421Z,1.80
2017-12-15T16:14:06.343Z,1.90
2017-12-15T16:16:34.469Z,1.90
2017-12-15T16:19:02.614Z,1.90
2017-12-15T16:21:30.750Z,1.90
2017-12-15T16:23:59.673Z,1.90
2017-12-15T16:26:28.244Z,1.80
2017-12-15T16:28:56.417Z,1.80
2017-12-15T16:31:24.575Z,1.90
2017-12-15T16:33:53.490Z,1.90
2017-12-15T16:36:21.605Z,1.90
2017-12-15T16:38:49.746Z,1.80
2017-12-15T16:41:17.893Z,1.70
2017-12-15T16:43:46.811Z,1.80
2017-12-15T16:46:14.941Z,1.70
2017-12-15T16:48:43.855Z,1.80
2017-12-15T16:51:11.972Z,1.80
2017-12-15T16:53:40.109Z,1.80
2017-12-15T16:56:08.239Z,1.80
2017-12-15T16:58:36.388Z,1.70
2017-12-15T17:01:04.522Z,1.60
2017-12-15T17:03:32.672Z,1.60
2017-12-15T17:06:00.786Z,1.60
2017-12-15T17:08:28.930Z,1.60
2017-12-15T17:10:57.822Z,1.80
2017-12-15T17:13:26.711Z,1.90
2017-12-15T17:15:55.681Z,1.80
2017-12-15T17:18:23.959Z,1.70
2017-12-15T17:20:52.093Z,1.70
2017-12-15T17:23:20.222Z,1.70
2017-12-15T17:25:49.129Z,1.50
2017-12-15T17:28:18.233Z,1.30
2017-12-15T17:30:46.407Z,1.30
2017-12-15T17:33:14.521Z,1.40
2017-12-15T17:35:42.656Z,1.70
2017-12-15T17:38:11.542Z,1.80
2017-12-15T17:40:39.688Z,1.80
2017-12-15T17:43:07.823Z,1.90
2017-12-15T17:45:35.973Z,1.80
2017-12-15T17:48:04.275Z,1.90
2017-12-15T17:50:32.430Z,2.00
2017-12-15T17:53:00.561Z,2.20
2017-12-15T17:55:29.479Z,2.30
2017-12-15T17:57:57.602Z,2.30
2017-12-15T18:00:25.745Z,2.40
2017-12-15T18:02:53.864Z,2.40
2017-12-15T18:05:22.014Z,2.50
2017-12-15T18:07:50.129Z,2.30
2017-12-15T18:10:19.042Z,2.30
2017-12-15T18:12:47.175Z,2.30
2017-12-15T18:15:15.355Z,2.30
2017-12-15T18:17:43.491Z,2.50
2017-12-15T18:20:11.647Z,2.50
2017-12-15T18:22:39.804Z,2.50
2017-12-15T18:25:07.965Z,2.50
2017-12-15T18:27:36.868Z,2.60
2017-12-15T18:30:05.043Z,2.60
2017-12-15T18:32:41.178Z,2.60
2017-12-15T18:35:21.849Z,2.60
2017-12-15T18:37:51.523Z,2.70
2017-12-15T18:40:19.641Z,2.70
2017-12-15T18:42:48.596Z,2.70
2017-12-15T18:45:16.719Z,2.70
2017-12-15T18:47:44.889Z,2.40
2017-12-15T18:50:13.034Z,2.30
2017-12-15T18:52:41.197Z,2.30
2017-12-15T18:55:09.326Z,2.30
2017-12-15T18:57:37.523Z,2.30
2017-12-15T19:00:05.800Z,2.40
2017-12-15T19:02:40.591Z,2.60
2017-12-15T19:05:09.818Z,2.60
2017-12-15T19:07:37.965Z,2.70
2017-12-15T19:10:06.089Z,2.70
2017-12-15T19:12:34.254Z,2.80
2017-12-15T19:15:02.662Z,2.90
2017-12-15T19:17:32.282Z,2.90
2017-12-15T19:20:00.548Z,2.90
2017-12-15T19:22:28.717Z,2.90
2017-12-15T19:24:57.622Z,3.00
2017-12-15T19:27:26.543Z,3.10
2017-12-15T19:29:54.696Z,3.10
2017-12-15T19:32:22.891Z,3.00
2017-12-15T19:34:51.034Z,3.00
2017-12-15T19:37:19.955Z,2.90
2017-12-15T19:39:48.099Z,2.90
2017-12-15T19:42:17.039Z,3.00
2017-12-15T19:44:45.169Z,2.90
2017-12-15T19:47:13.343Z,3.00
2017-12-15T19:49:42.230Z,3.00
2017-12-15T19:52:11.149Z,3.00
2017-12-15T19:54:39.279Z,3.00
2017-12-15T19:57:07.434Z,2.90
2017-12-15T19:59:35.577Z,2.70
2017-12-15T20:02:03.715Z,2.80
2017-12-15T20:04:32.626Z,2.80
2017-12-15T20:07:00.750Z,2.80
2017-12-15T20:09:28.899Z,2.80
2017-12-15T20:11:57.031Z,2.70
2017-12-15T20:14:25.958Z,2.70
2017-12-15T20:16:54.091Z,2.60
2017-12-15T20:19:23.009Z,2.60
2017-12-15T20:21:51.126Z,2.60
2017-12-15T20:24:19.282Z,2.70
2017-12-15T20:26:47.405Z,2.80
2017-12-15T20:29:16.347Z,2.70
2017-12-15T20:31:44.486Z,2.70
2017-12-15T20:34:12.647Z,2.80
2017-12-15T20:36:41.537Z,2.80
2017-12-15T20:39:10.465Z,2.50
2017-12-15T20:41:38.596Z,2.50
2017-12-15T20:44:07.509Z,2.70
2017-12-15T20:46:35.646Z,2.70
2017-12-15T20:49:04.570Z,2.90
2017-12-15T20:51:32.694Z,2.90
2017-12-15T20:54:00.843Z,2.90
2017-12-15T20:56:28.975Z,2.90
2017-12-15T20:58:57.891Z,2.90
2017-12-15T21:01:26.012Z,2.90
2017-12-15T21:03:54.157Z,2.90
2017-12-15T21:06:22.284Z,2.90
2017-12-15T21:08:51.203Z,2.70
2017-12-15T21:11:19.323Z,2.70
2017-12-15T21:13:47.474Z,2.70
2017-12-15T21:16:15.615Z,2.70
2017-12-15T21:18:43.780Z,2.70
2017-12-15T21:21:12.666Z,2.80
2017-12-15T21:23:41.603Z,2.80
2017-12-15T21:26:09.775Z,2.80
2017-12-15T21:28:37.963Z,2.30
2017-12-15T21:31:06.566Z,2.10
2017-12-15T21:33:34.725Z,2.10
2017-12-15T21:36:02.855Z,2.10
2017-12-15T21:38:30.984Z,2.10
2017-12-15T21:40:59.142Z,2.00
2017-12-15T21:43:27.282Z,2.00
2017-12-15T21:45:55.437Z,2.00
2017-12-15T21:48:24.329Z,2.10
2017-12-15T21:50:53.245Z,2.20
2017-12-15T21:53:21.371Z,2.20
2017-12-15T21:55:49.533Z,2.30
2017-12-15T21:58:17.873Z,2.40
2017-12-15T22:00:46.854Z,2.40
2017-12-15T22:03:15.007Z,2.40
2017-12-15T22:05:43.920Z,2.40
2017-12-15T22:08:12.039Z,2.40
2017-12-15T22:10:40.194Z,2.50
2017-12-15T22:13:08.345Z,2.60
2017-12-15T22:15:36.503Z,2.60
2017-12-15T22:18:04.626Z,2.60
2017-12-15T22:20:32.781Z,2.60
2017-12-15T22:23:00.910Z,2.50
2017-12-15T22:25:29.830Z,2.50
2017-12-15T22:27:59.201Z,2.60
2017-12-15T22:30:28.137Z,2.80
2017-12-15T22:32:56.274Z,2.80
2017-12-15T22:35:25.192Z,2.70
2017-12-15T22:37:53.318Z,2.70
2017-12-15T22:40:21.475Z,2.80
2017-12-15T22:42:49.611Z,2.80
2017-12-15T22:45:17.770Z,2.90
2017-12-15T22:47:45.898Z,2.90
2017-12-15T22:50:14.057Z,2.90
2017-12-15T22:52:42.193Z,3.00
2017-12-15T22:55:10.356Z,3.00
2017-12-15T22:57:38.515Z,2.90
2017-12-15T23:00:06.697Z,2.90
2017-12-15T23:02:39.809Z,3.00
2017-12-15T23:05:08.762Z,2.80
2017-12-15T23:07:36.977Z,2.80
2017-12-15T23:10:05.890Z,2.80
2017-12-15T23:12:34.037Z,2.70
2017-12-15T23:15:02.187Z,2.80
2017-12-15T23:17:30.337Z,2.80
2017-12-15T23:19:58.471Z,2.80
2017-12-15T23:22:26.630Z,2.90
2017-12-15T23:24:55.516Z,3.00
2017-12-15T23:27:24.429Z,3.00
2017-12-15T23:29:52.557Z,3.00
2017-12-15T23:32:20.702Z,3.00
2017-12-15T23:34:48.823Z,3.00
2017-12-15T23:37:17.757Z,3.00
2017-12-15T23:39:45.894Z,3.00
2017-12-15T23:42:14.817Z,3.00
2017-12-15T23:44:42.947Z,3.00
2017-12-15T23:47:11.603Z,3.10
2017-12-15T23:49:39.738Z,3.10
2017-12-15T23:52:07.883Z,3.10
2017-12-15T23:54:48.557Z,3.10
2017-12-15T23:57:17.491Z,3.10
2017-12-15T23:59:45.623Z,3.10
